Terminal Aerodrome Forecast
Issued by NWS

Home | Current Version | Previous Version | Graphics & Text | Print | Product List | Glossary On
Versions: 1 2 3 4 5 6 7 8 9 10 11 12 13 14
000
FTUS43 KICT 151400 AAA
TAFHUT
TAF AMD
KHUT 151446Z 1515/1612 23012KT P6SM SCT100 BKN200
     FM151800 01014G20KT P6SM VCSH SCT010 BKN025
      TEMPO 1518/1521 3SM BR BKN010
     FM152300 04011KT P6SM VCSH OVC020
     FM160600 08011KT P6SM BKN012=

USA.gov is the U.S. government's official web portal to all federal, state and local government web resources and services.